sensor_id;sensor_type;location;lat;lon;timestamp;P1;durP1;ratioP1;P2;durP2;ratioP2
3755;SDS011;1893;52.526;13.360;2023-07-24T00:01:11;6.03;;;3.07;;
3755;SDS011;1893;52.526;13.360;2023-07-24T00:03:37;5.20;;;2.90;;
3755;SDS011;1893;52.526;13.360;2023-07-24T00:06:02;3.73;;;3.23;;
3755;SDS011;1893;52.526;13.360;2023-07-24T00:08:28;3.87;;;3.10;;
3755;SDS011;1893;52.526;13.360;2023-07-24T00:10:53;4.63;;;2.90;;
3755;SDS011;1893;52.526;13.360;2023-07-24T00:13:19;3.83;;;3.33;;
3755;SDS011;1893;52.526;13.360;2023-07-24T00:15:45;4.50;;;2.80;;
3755;SDS011;1893;52.526;13.360;2023-07-24T00:18:10;5.63;;;3.20;;
3755;SDS011;1893;52.526;13.360;2023-07-24T00:20:36;2.93;;;2.60;;
3755;SDS011;1893;52.526;13.360;2023-07-24T00:23:02;4.60;;;3.47;;
3755;SDS011;1893;52.526;13.360;2023-07-24T00:25:27;10.03;;;3.50;;
3755;SDS011;1893;52.526;13.360;2023-07-24T00:27:53;4.23;;;3.23;;
3755;SDS011;1893;52.526;13.360;2023-07-24T00:30:18;3.83;;;2.73;;
3755;SDS011;1893;52.526;13.360;2023-07-24T00:32:44;5.57;;;2.97;;
3755;SDS011;1893;52.526;13.360;2023-07-24T00:35:10;6.70;;;3.63;;
3755;SDS011;1893;52.526;13.360;2023-07-24T00:37:35;3.23;;;2.63;;
3755;SDS011;1893;52.526;13.360;2023-07-24T00:40:02;5.90;;;3.90;;
3755;SDS011;1893;52.526;13.360;2023-07-24T00:42:28;5.17;;;2.40;;
3755;SDS011;1893;52.526;13.360;2023-07-24T00:44:54;5.43;;;2.90;;
3755;SDS011;1893;52.526;13.360;2023-07-24T00:47:20;3.70;;;2.57;;
3755;SDS011;1893;52.526;13.360;2023-07-24T00:49:46;3.63;;;2.80;;
3755;SDS011;1893;52.526;13.360;2023-07-24T00:52:13;3.00;;;2.50;;
3755;SDS011;1893;52.526;13.360;2023-07-24T00:54:40;3.40;;;3.10;;
3755;SDS011;1893;52.526;13.360;2023-07-24T00:57:06;3.70;;;3.40;;
3755;SDS011;1893;52.526;13.360;2023-07-24T00:59:32;3.13;;;2.83;;
3755;SDS011;1893;52.526;13.360;2023-07-24T01:01:58;4.90;;;3.30;;
3755;SDS011;1893;52.526;13.360;2023-07-24T01:04:24;3.77;;;2.53;;
3755;SDS011;1893;52.526;13.360;2023-07-24T01:06:50;7.93;;;3.17;;
3755;SDS011;1893;52.526;13.360;2023-07-24T01:09:16;7.07;;;3.43;;
3755;SDS011;1893;52.526;13.360;2023-07-24T01:11:50;10.27;;;3.03;;
3755;SDS011;1893;52.526;13.360;2023-07-24T01:16:57;6.20;;;3.33;;
3755;SDS011;1893;52.526;13.360;2023-07-24T01:27:56;3.30;;;2.80;;
3755;SDS011;1893;52.526;13.360;2023-07-24T01:30:22;4.23;;;3.00;;
3755;SDS011;1893;52.526;13.360;2023-07-24T01:32:47;4.10;;;2.67;;
3755;SDS011;1893;52.526;13.360;2023-07-24T01:35:13;4.97;;;3.10;;
3755;SDS011;1893;52.526;13.360;2023-07-24T01:37:39;4.23;;;2.70;;
3755;SDS011;1893;52.526;13.360;2023-07-24T01:40:07;3.70;;;2.63;;
3755;SDS011;1893;52.526;13.360;2023-07-24T01:42:34;5.93;;;2.50;;
3755;SDS011;1893;52.526;13.360;2023-07-24T01:45:01;3.73;;;2.60;;
3755;SDS011;1893;52.526;13.360;2023-07-24T01:47:28;8.70;;;2.60;;
3755;SDS011;1893;52.526;13.360;2023-07-24T01:49:54;2.67;;;2.47;;
3755;SDS011;1893;52.526;13.360;2023-07-24T01:52:20;3.10;;;2.20;;
3755;SDS011;1893;52.526;13.360;2023-07-24T01:54:46;4.90;;;2.63;;
3755;SDS011;1893;52.526;13.360;2023-07-24T01:57:12;3.47;;;2.43;;
3755;SDS011;1893;52.526;13.360;2023-07-24T01:59:37;4.60;;;2.90;;
3755;SDS011;1893;52.526;13.360;2023-07-24T02:02:03;7.73;;;2.83;;
3755;SDS011;1893;52.526;13.360;2023-07-24T02:04:29;6.03;;;2.47;;
3755;SDS011;1893;52.526;13.360;2023-07-24T02:06:54;5.07;;;3.20;;
3755;SDS011;1893;52.526;13.360;2023-07-24T02:09:20;2.53;;;2.33;;
3755;SDS011;1893;52.526;13.360;2023-07-24T02:11:46;5.37;;;2.53;;
3755;SDS011;1893;52.526;13.360;2023-07-24T02:14:12;3.73;;;2.70;;
3755;SDS011;1893;52.526;13.360;2023-07-24T02:16:39;3.20;;;2.83;;
3755;SDS011;1893;52.526;13.360;2023-07-24T02:19:05;3.43;;;2.70;;
3755;SDS011;1893;52.526;13.360;2023-07-24T02:21:31;4.30;;;2.40;;
3755;SDS011;1893;52.526;13.360;2023-07-24T02:23:57;2.80;;;2.30;;
3755;SDS011;1893;52.526;13.360;2023-07-24T02:26:23;4.33;;;2.70;;
3755;SDS011;1893;52.526;13.360;2023-07-24T02:28:48;6.20;;;2.70;;
3755;SDS011;1893;52.526;13.360;2023-07-24T02:31:14;4.40;;;2.80;;
3755;SDS011;1893;52.526;13.360;2023-07-24T02:33:40;3.70;;;2.90;;
3755;SDS011;1893;52.526;13.360;2023-07-24T02:36:05;3.90;;;3.20;;
3755;SDS011;1893;52.526;13.360;2023-07-24T02:38:31;4.03;;;3.27;;
3755;SDS011;1893;52.526;13.360;2023-07-24T02:40:57;3.50;;;3.17;;
3755;SDS011;1893;52.526;13.360;2023-07-24T02:43:22;4.47;;;2.00;;
3755;SDS011;1893;52.526;13.360;2023-07-24T02:45:48;3.07;;;2.77;;
3755;SDS011;1893;52.526;13.360;2023-07-24T02:48:13;2.57;;;2.27;;
3755;SDS011;1893;52.526;13.360;2023-07-24T02:50:39;3.10;;;2.40;;
3755;SDS011;1893;52.526;13.360;2023-07-24T02:53:05;2.77;;;2.50;;
3755;SDS011;1893;52.526;13.360;2023-07-24T02:55:30;3.47;;;2.57;;
3755;SDS011;1893;52.526;13.360;2023-07-24T02:57:56;3.80;;;2.70;;
3755;SDS011;1893;52.526;13.360;2023-07-24T03:00:22;5.57;;;2.50;;
3755;SDS011;1893;52.526;13.360;2023-07-24T03:02:48;3.50;;;2.40;;
3755;SDS011;1893;52.526;13.360;2023-07-24T03:05:13;3.40;;;2.67;;
3755;SDS011;1893;52.526;13.360;2023-07-24T03:07:39;4.40;;;2.13;;
3755;SDS011;1893;52.526;13.360;2023-07-24T03:10:04;3.20;;;2.20;;
3755;SDS011;1893;52.526;13.360;2023-07-24T03:12:30;2.77;;;2.07;;
3755;SDS011;1893;52.526;13.360;2023-07-24T03:14:56;2.50;;;2.30;;
3755;SDS011;1893;52.526;13.360;2023-07-24T03:17:22;2.57;;;1.87;;
3755;SDS011;1893;52.526;13.360;2023-07-24T03:19:48;2.93;;;2.63;;
3755;SDS011;1893;52.526;13.360;2023-07-24T03:22:14;3.67;;;2.27;;
3755;SDS011;1893;52.526;13.360;2023-07-24T03:24:40;2.27;;;2.07;;
3755;SDS011;1893;52.526;13.360;2023-07-24T03:27:06;4.63;;;2.87;;
3755;SDS011;1893;52.526;13.360;2023-07-24T03:29:31;2.07;;;1.87;;
3755;SDS011;1893;52.526;13.360;2023-07-24T03:31:57;2.80;;;2.47;;
3755;SDS011;1893;52.526;13.360;2023-07-24T03:34:23;3.03;;;2.07;;
3755;SDS011;1893;52.526;13.360;2023-07-24T03:36:49;2.90;;;2.20;;
3755;SDS011;1893;52.526;13.360;2023-07-24T03:39:15;2.23;;;2.10;;
3755;SDS011;1893;52.526;13.360;2023-07-24T03:41:41;4.50;;;2.10;;
3755;SDS011;1893;52.526;13.360;2023-07-24T03:44:07;4.10;;;2.10;;
3755;SDS011;1893;52.526;13.360;2023-07-24T03:46:33;2.27;;;1.90;;
3755;SDS011;1893;52.526;13.360;2023-07-24T03:48:59;3.27;;;2.27;;
3755;SDS011;1893;52.526;13.360;2023-07-24T03:51:25;2.97;;;2.10;;
3755;SDS011;1893;52.526;13.360;2023-07-24T03:53:51;3.20;;;2.00;;
3755;SDS011;1893;52.526;13.360;2023-07-24T03:56:17;3.33;;;2.10;;
3755;SDS011;1893;52.526;13.360;2023-07-24T03:58:42;1.60;;;1.50;;
3755;SDS011;1893;52.526;13.360;2023-07-24T04:01:08;2.30;;;2.10;;
3755;SDS011;1893;52.526;13.360;2023-07-24T04:03:34;2.70;;;2.10;;
3755;SDS011;1893;52.526;13.360;2023-07-24T04:06:00;2.00;;;1.80;;
3755;SDS011;1893;52.526;13.360;2023-07-24T04:08:26;2.47;;;2.27;;
3755;SDS011;1893;52.526;13.360;2023-07-24T04:10:52;2.73;;;1.83;;
3755;SDS011;1893;52.526;13.360;2023-07-24T04:13:17;2.80;;;1.87;;
3755;SDS011;1893;52.526;13.360;2023-07-24T04:15:43;2.03;;;1.70;;
3755;SDS011;1893;52.526;13.360;2023-07-24T04:18:09;3.10;;;2.10;;
3755;SDS011;1893;52.526;13.360;2023-07-24T04:20:35;3.60;;;1.87;;
3755;SDS011;1893;52.526;13.360;2023-07-24T04:23:01;2.20;;;2.00;;
3755;SDS011;1893;52.526;13.360;2023-07-24T04:25:26;2.20;;;1.43;;
3755;SDS011;1893;52.526;13.360;2023-07-24T04:27:52;2.93;;;1.70;;
3755;SDS011;1893;52.526;13.360;2023-07-24T04:30:18;3.00;;;1.80;;
3755;SDS011;1893;52.526;13.360;2023-07-24T04:32:43;2.30;;;1.70;;
3755;SDS011;1893;52.526;13.360;2023-07-24T04:35:09;2.40;;;1.77;;
3755;SDS011;1893;52.526;13.360;2023-07-24T04:37:34;2.23;;;1.70;;
3755;SDS011;1893;52.526;13.360;2023-07-24T04:40:00;3.37;;;1.80;;
3755;SDS011;1893;52.526;13.360;2023-07-24T04:42:26;4.27;;;1.67;;
3755;SDS011;1893;52.526;13.360;2023-07-24T04:44:51;1.73;;;1.63;;
3755;SDS011;1893;52.526;13.360;2023-07-24T04:47:17;2.20;;;1.70;;
3755;SDS011;1893;52.526;13.360;2023-07-24T04:49:43;1.60;;;1.50;;
3755;SDS011;1893;52.526;13.360;2023-07-24T04:52:08;2.10;;;1.70;;
3755;SDS011;1893;52.526;13.360;2023-07-24T04:54:34;1.57;;;1.47;;
3755;SDS011;1893;52.526;13.360;2023-07-24T04:56:59;3.00;;;1.80;;
3755;SDS011;1893;52.526;13.360;2023-07-24T04:59:25;2.40;;;1.90;;
3755;SDS011;1893;52.526;13.360;2023-07-24T05:01:50;2.27;;;1.50;;
3755;SDS011;1893;52.526;13.360;2023-07-24T05:04:16;1.77;;;1.67;;
3755;SDS011;1893;52.526;13.360;2023-07-24T05:06:43;2.40;;;1.50;;
3755;SDS011;1893;52.526;13.360;2023-07-24T05:09:08;2.27;;;1.50;;
3755;SDS011;1893;52.526;13.360;2023-07-24T05:11:34;6.10;;;1.60;;
3755;SDS011;1893;52.526;13.360;2023-07-24T05:14:00;3.03;;;1.60;;
3755;SDS011;1893;52.526;13.360;2023-07-24T05:16:25;2.33;;;1.90;;
3755;SDS011;1893;52.526;13.360;2023-07-24T05:18:51;3.13;;;1.30;;
3755;SDS011;1893;52.526;13.360;2023-07-24T05:21:16;4.50;;;2.90;;
3755;SDS011;1893;52.526;13.360;2023-07-24T05:23:42;1.53;;;1.43;;
3755;SDS011;1893;52.526;13.360;2023-07-24T05:26:08;1.60;;;1.50;;
3755;SDS011;1893;52.526;13.360;2023-07-24T05:28:33;1.37;;;1.27;;
3755;SDS011;1893;52.526;13.360;2023-07-24T05:31:02;3.83;;;1.90;;
3755;SDS011;1893;52.526;13.360;2023-07-24T05:33:29;1.30;;;1.10;;
3755;SDS011;1893;52.526;13.360;2023-07-24T05:36:01;1.40;;;1.30;;
3755;SDS011;1893;52.526;13.360;2023-07-24T05:38:28;1.37;;;1.20;;
3755;SDS011;1893;52.526;13.360;2023-07-24T05:40:58;2.70;;;1.37;;
3755;SDS011;1893;52.526;13.360;2023-07-24T05:43:24;1.40;;;1.30;;
3755;SDS011;1893;52.526;13.360;2023-07-24T05:45:50;2.13;;;1.40;;
3755;SDS011;1893;52.526;13.360;2023-07-24T05:48:17;1.30;;;1.20;;
3755;SDS011;1893;52.526;13.360;2023-07-24T05:50:43;1.70;;;1.50;;
3755;SDS011;1893;52.526;13.360;2023-07-24T05:53:08;3.13;;;1.57;;
3755;SDS011;1893;52.526;13.360;2023-07-24T05:55:34;1.73;;;1.17;;
3755;SDS011;1893;52.526;13.360;2023-07-24T05:58:00;2.17;;;1.30;;
3755;SDS011;1893;52.526;13.360;2023-07-24T06:00:25;1.30;;;1.20;;
3755;SDS011;1893;52.526;13.360;2023-07-24T06:02:52;1.77;;;1.30;;
3755;SDS011;1893;52.526;13.360;2023-07-24T06:05:18;1.53;;;1.30;;
3755;SDS011;1893;52.526;13.360;2023-07-24T06:07:44;1.63;;;1.40;;
3755;SDS011;1893;52.526;13.360;2023-07-24T06:10:11;1.90;;;1.47;;
3755;SDS011;1893;52.526;13.360;2023-07-24T06:12:36;1.73;;;1.30;;
3755;SDS011;1893;52.526;13.360;2023-07-24T06:15:02;1.50;;;1.13;;
3755;SDS011;1893;52.526;13.360;2023-07-24T06:17:28;1.70;;;1.60;;
3755;SDS011;1893;52.526;13.360;2023-07-24T06:19:54;2.50;;;2.30;;
3755;SDS011;1893;52.526;13.360;2023-07-24T06:22:19;2.00;;;1.40;;
3755;SDS011;1893;52.526;13.360;2023-07-24T06:24:45;2.40;;;1.43;;
3755;SDS011;1893;52.526;13.360;2023-07-24T06:27:10;1.70;;;1.60;;
3755;SDS011;1893;52.526;13.360;2023-07-24T06:29:36;3.90;;;2.07;;
3755;SDS011;1893;52.526;13.360;2023-07-24T06:32:02;2.37;;;2.17;;
3755;SDS011;1893;52.526;13.360;2023-07-24T06:34:28;2.83;;;2.03;;
3755;SDS011;1893;52.526;13.360;2023-07-24T06:36:53;2.73;;;1.80;;
3755;SDS011;1893;52.526;13.360;2023-07-24T06:39:19;1.90;;;1.80;;
3755;SDS011;1893;52.526;13.360;2023-07-24T06:41:45;3.10;;;2.10;;
3755;SDS011;1893;52.526;13.360;2023-07-24T06:44:11;1.90;;;1.80;;
3755;SDS011;1893;52.526;13.360;2023-07-24T06:46:36;2.57;;;2.10;;
3755;SDS011;1893;52.526;13.360;2023-07-24T06:49:02;2.30;;;2.10;;
3755;SDS011;1893;52.526;13.360;2023-07-24T06:51:28;2.23;;;2.00;;
3755;SDS011;1893;52.526;13.360;2023-07-24T06:53:53;2.30;;;2.10;;
3755;SDS011;1893;52.526;13.360;2023-07-24T06:56:19;2.53;;;2.30;;
3755;SDS011;1893;52.526;13.360;2023-07-24T06:58:45;2.17;;;2.07;;
3755;SDS011;1893;52.526;13.360;2023-07-24T07:01:10;2.07;;;1.87;;
3755;SDS011;1893;52.526;13.360;2023-07-24T07:03:36;2.47;;;2.27;;
3755;SDS011;1893;52.526;13.360;2023-07-24T07:06:02;4.37;;;1.70;;
3755;SDS011;1893;52.526;13.360;2023-07-24T07:08:28;1.80;;;1.70;;
3755;SDS011;1893;52.526;13.360;2023-07-24T07:10:58;2.53;;;1.80;;
3755;SDS011;1893;52.526;13.360;2023-07-24T07:13:25;1.73;;;1.63;;
3755;SDS011;1893;52.526;13.360;2023-07-24T07:15:50;1.87;;;1.77;;
3755;SDS011;1893;52.526;13.360;2023-07-24T07:18:16;2.43;;;2.03;;
3755;SDS011;1893;52.526;13.360;2023-07-24T07:20:45;2.33;;;2.13;;
3755;SDS011;1893;52.526;13.360;2023-07-24T07:23:11;1.70;;;1.60;;
3755;SDS011;1893;52.526;13.360;2023-07-24T07:25:37;2.27;;;2.07;;
3755;SDS011;1893;52.526;13.360;2023-07-24T07:28:03;2.77;;;2.57;;
3755;SDS011;1893;52.526;13.360;2023-07-24T07:30:28;2.77;;;2.33;;
3755;SDS011;1893;52.526;13.360;2023-07-24T07:32:54;2.03;;;1.83;;
3755;SDS011;1893;52.526;13.360;2023-07-24T07:35:20;2.10;;;1.90;;
3755;SDS011;1893;52.526;13.360;2023-07-24T07:37:45;2.07;;;1.80;;
3755;SDS011;1893;52.526;13.360;2023-07-24T07:40:11;2.20;;;1.93;;
3755;SDS011;1893;52.526;13.360;2023-07-24T07:42:36;2.37;;;2.00;;
3755;SDS011;1893;52.526;13.360;2023-07-24T07:45:02;2.30;;;2.10;;
3755;SDS011;1893;52.526;13.360;2023-07-24T07:47:28;2.30;;;2.00;;
3755;SDS011;1893;52.526;13.360;2023-07-24T07:49:54;1.77;;;1.67;;
3755;SDS011;1893;52.526;13.360;2023-07-24T07:52:19;2.20;;;2.03;;
3755;SDS011;1893;52.526;13.360;2023-07-24T07:54:48;2.37;;;2.27;;
3755;SDS011;1893;52.526;13.360;2023-07-24T07:57:14;1.80;;;1.70;;
3755;SDS011;1893;52.526;13.360;2023-07-24T07:59:41;2.03;;;1.93;;
3755;SDS011;1893;52.526;13.360;2023-07-24T08:02:07;2.20;;;1.93;;
3755;SDS011;1893;52.526;13.360;2023-07-24T08:04:32;1.77;;;1.53;;
3755;SDS011;1893;52.526;13.360;2023-07-24T08:06:58;1.63;;;1.53;;
3755;SDS011;1893;52.526;13.360;2023-07-24T08:09:23;1.80;;;1.70;;
3755;SDS011;1893;52.526;13.360;2023-07-24T08:11:52;1.70;;;1.50;;
3755;SDS011;1893;52.526;13.360;2023-07-24T08:14:18;1.70;;;1.60;;
3755;SDS011;1893;52.526;13.360;2023-07-24T08:16:44;1.80;;;1.70;;
3755;SDS011;1893;52.526;13.360;2023-07-24T08:19:09;2.80;;;2.10;;
3755;SDS011;1893;52.526;13.360;2023-07-24T08:21:35;1.77;;;1.67;;
3755;SDS011;1893;52.526;13.360;2023-07-24T08:24:02;1.70;;;1.60;;
3755;SDS011;1893;52.526;13.360;2023-07-24T08:26:28;2.07;;;1.97;;
3755;SDS011;1893;52.526;13.360;2023-07-24T08:28:53;2.23;;;1.73;;
3755;SDS011;1893;52.526;13.360;2023-07-24T08:31:19;4.77;;;2.23;;
3755;SDS011;1893;52.526;13.360;2023-07-24T08:33:45;2.30;;;1.80;;
3755;SDS011;1893;52.526;13.360;2023-07-24T08:36:10;1.77;;;1.67;;
3755;SDS011;1893;52.526;13.360;2023-07-24T08:38:39;1.80;;;1.57;;
3755;SDS011;1893;52.526;13.360;2023-07-24T08:41:10;2.37;;;1.40;;
3755;SDS011;1893;52.526;13.360;2023-07-24T08:43:37;3.97;;;2.87;;
3755;SDS011;1893;52.526;13.360;2023-07-24T08:46:05;2.70;;;2.50;;
3755;SDS011;1893;52.526;13.360;2023-07-24T08:48:42;2.23;;;2.00;;
3755;SDS011;1893;52.526;13.360;2023-07-24T08:51:09;1.60;;;1.50;;
3755;SDS011;1893;52.526;13.360;2023-07-24T08:53:36;1.80;;;1.70;;
3755;SDS011;1893;52.526;13.360;2023-07-24T08:56:06;1.67;;;1.57;;
3755;SDS011;1893;52.526;13.360;2023-07-24T08:58:33;2.00;;;1.90;;
3755;SDS011;1893;52.526;13.360;2023-07-24T09:01:00;2.13;;;1.80;;
3755;SDS011;1893;52.526;13.360;2023-07-24T09:03:27;1.50;;;1.40;;
3755;SDS011;1893;52.526;13.360;2023-07-24T09:05:54;1.93;;;1.70;;
3755;SDS011;1893;52.526;13.360;2023-07-24T09:08:35;1.70;;;1.60;;
3755;SDS011;1893;52.526;13.360;2023-07-24T09:11:03;1.53;;;1.43;;
3755;SDS011;1893;52.526;13.360;2023-07-24T09:13:29;3.67;;;1.97;;
3755;SDS011;1893;52.526;13.360;2023-07-24T09:15:56;2.20;;;2.10;;
3755;SDS011;1893;52.526;13.360;2023-07-24T09:18:22;1.73;;;1.63;;
3755;SDS011;1893;52.526;13.360;2023-07-24T09:20:48;1.83;;;1.73;;
3755;SDS011;1893;52.526;13.360;2023-07-24T09:23:14;2.00;;;1.80;;
3755;SDS011;1893;52.526;13.360;2023-07-24T09:25:41;2.40;;;2.20;;
3755;SDS011;1893;52.526;13.360;2023-07-24T09:28:14;1.90;;;1.60;;
3755;SDS011;1893;52.526;13.360;2023-07-24T09:30:42;2.10;;;1.90;;
3755;SDS011;1893;52.526;13.360;2023-07-24T09:33:21;2.07;;;1.93;;
3755;SDS011;1893;52.526;13.360;2023-07-24T09:35:57;2.37;;;1.97;;
3755;SDS011;1893;52.526;13.360;2023-07-24T09:38:24;2.10;;;2.00;;
3755;SDS011;1893;52.526;13.360;2023-07-24T09:40:49;2.57;;;2.10;;
3755;SDS011;1893;52.526;13.360;2023-07-24T09:43:18;2.47;;;1.80;;
3755;SDS011;1893;52.526;13.360;2023-07-24T09:45:45;1.87;;;1.77;;
3755;SDS011;1893;52.526;13.360;2023-07-24T09:48:12;2.40;;;2.20;;
3755;SDS011;1893;52.526;13.360;2023-07-24T09:50:40;2.07;;;1.90;;
3755;SDS011;1893;52.526;13.360;2023-07-24T09:53:10;3.00;;;2.13;;
3755;SDS011;1893;52.526;13.360;2023-07-24T09:55:58;5.70;;;1.67;;
3755;SDS011;1893;52.526;13.360;2023-07-24T09:58:26;2.30;;;1.90;;
3755;SDS011;1893;52.526;13.360;2023-07-24T10:00:52;2.50;;;2.30;;
3755;SDS011;1893;52.526;13.360;2023-07-24T10:03:19;3.30;;;1.87;;
3755;SDS011;1893;52.526;13.360;2023-07-24T10:05:46;2.33;;;2.00;;
3755;SDS011;1893;52.526;13.360;2023-07-24T10:08:16;2.37;;;2.17;;
3755;SDS011;1893;52.526;13.360;2023-07-24T10:10:43;2.97;;;1.83;;
3755;SDS011;1893;52.526;13.360;2023-07-24T10:13:09;2.60;;;2.40;;
3755;SDS011;1893;52.526;13.360;2023-07-24T10:15:39;3.27;;;2.03;;
3755;SDS011;1893;52.526;13.360;2023-07-24T10:18:09;2.97;;;2.57;;
3755;SDS011;1893;52.526;13.360;2023-07-24T10:20:39;2.57;;;2.37;;
3755;SDS011;1893;52.526;13.360;2023-07-24T10:23:09;2.87;;;2.40;;
3755;SDS011;1893;52.526;13.360;2023-07-24T10:25:37;2.90;;;2.40;;
3755;SDS011;1893;52.526;13.360;2023-07-24T10:28:06;4.77;;;3.00;;
3755;SDS011;1893;52.526;13.360;2023-07-24T10:30:36;2.70;;;2.50;;
3755;SDS011;1893;52.526;13.360;2023-07-24T10:35:43;3.90;;;2.63;;
3755;SDS011;1893;52.526;13.360;2023-07-24T10:38:10;3.83;;;3.10;;
3755;SDS011;1893;52.526;13.360;2023-07-24T10:40:39;4.43;;;2.70;;
3755;SDS011;1893;52.526;13.360;2023-07-24T10:43:06;3.53;;;2.70;;
3755;SDS011;1893;52.526;13.360;2023-07-24T10:48:15;3.83;;;3.50;;
3755;SDS011;1893;52.526;13.360;2023-07-24T10:50:44;5.50;;;3.37;;
3755;SDS011;1893;52.526;13.360;2023-07-24T10:53:11;5.07;;;3.20;;
3755;SDS011;1893;52.526;13.360;2023-07-24T10:55:38;3.93;;;3.37;;
3755;SDS011;1893;52.526;13.360;2023-07-24T10:58:05;3.10;;;2.67;;
3755;SDS011;1893;52.526;13.360;2023-07-24T11:00:31;3.43;;;3.13;;
3755;SDS011;1893;52.526;13.360;2023-07-24T11:02:57;4.53;;;3.67;;
3755;SDS011;1893;52.526;13.360;2023-07-24T11:05:22;3.33;;;2.80;;
3755;SDS011;1893;52.526;13.360;2023-07-24T11:07:48;4.47;;;3.70;;
3755;SDS011;1893;52.526;13.360;2023-07-24T11:10:18;9.40;;;3.93;;
3755;SDS011;1893;52.526;13.360;2023-07-24T11:12:44;3.77;;;3.47;;
3755;SDS011;1893;52.526;13.360;2023-07-24T11:15:11;5.50;;;3.93;;
3755;SDS011;1893;52.526;13.360;2023-07-24T11:17:38;4.27;;;3.87;;
3755;SDS011;1893;52.526;13.360;2023-07-24T11:20:08;4.37;;;3.70;;
3755;SDS011;1893;52.526;13.360;2023-07-24T11:22:38;5.20;;;4.70;;
3755;SDS011;1893;52.526;13.360;2023-07-24T11:25:05;4.67;;;3.97;;
3755;SDS011;1893;52.526;13.360;2023-07-24T11:27:31;7.27;;;4.10;;
3755;SDS011;1893;52.526;13.360;2023-07-24T11:29:58;6.27;;;3.40;;
3755;SDS011;1893;52.526;13.360;2023-07-24T11:32:23;8.60;;;4.30;;
3755;SDS011;1893;52.526;13.360;2023-07-24T11:34:49;4.97;;;3.60;;
3755;SDS011;1893;52.526;13.360;2023-07-24T11:37:16;4.63;;;4.00;;
3755;SDS011;1893;52.526;13.360;2023-07-24T11:39:43;6.27;;;4.43;;
3755;SDS011;1893;52.526;13.360;2023-07-24T11:42:19;4.90;;;4.40;;
3755;SDS011;1893;52.526;13.360;2023-07-24T11:44:44;6.73;;;4.17;;
3755;SDS011;1893;52.526;13.360;2023-07-24T11:47:10;7.37;;;4.93;;
3755;SDS011;1893;52.526;13.360;2023-07-24T11:49:36;4.50;;;4.10;;
3755;SDS011;1893;52.526;13.360;2023-07-24T11:52:05;5.27;;;4.30;;
3755;SDS011;1893;52.526;13.360;2023-07-24T11:54:35;6.03;;;3.83;;
3755;SDS011;1893;52.526;13.360;2023-07-24T11:57:00;4.47;;;4.07;;
3755;SDS011;1893;52.526;13.360;2023-07-24T11:59:26;6.40;;;4.27;;
3755;SDS011;1893;52.526;13.360;2023-07-24T12:01:52;7.77;;;4.30;;
3755;SDS011;1893;52.526;13.360;2023-07-24T12:04:18;5.47;;;3.90;;
3755;SDS011;1893;52.526;13.360;2023-07-24T12:06:45;5.90;;;3.73;;
3755;SDS011;1893;52.526;13.360;2023-07-24T12:09:11;10.30;;;4.43;;
3755;SDS011;1893;52.526;13.360;2023-07-24T12:11:43;6.70;;;4.40;;
3755;SDS011;1893;52.526;13.360;2023-07-24T12:14:09;6.10;;;4.70;;
3755;SDS011;1893;52.526;13.360;2023-07-24T12:16:36;5.40;;;4.00;;
3755;SDS011;1893;52.526;13.360;2023-07-24T12:19:01;5.40;;;4.13;;
3755;SDS011;1893;52.526;13.360;2023-07-24T12:21:27;11.63;;;5.23;;
3755;SDS011;1893;52.526;13.360;2023-07-24T12:23:53;6.40;;;4.00;;
3755;SDS011;1893;52.526;13.360;2023-07-24T12:26:18;8.30;;;3.90;;
3755;SDS011;1893;52.526;13.360;2023-07-24T12:28:44;6.80;;;4.27;;
3755;SDS011;1893;52.526;13.360;2023-07-24T12:31:09;7.60;;;5.07;;
3755;SDS011;1893;52.526;13.360;2023-07-24T12:33:35;9.33;;;4.23;;
3755;SDS011;1893;52.526;13.360;2023-07-24T12:36:00;10.10;;;7.20;;
3755;SDS011;1893;52.526;13.360;2023-07-24T12:38:26;8.40;;;4.50;;
3755;SDS011;1893;52.526;13.360;2023-07-24T12:40:53;5.30;;;4.07;;
3755;SDS011;1893;52.526;13.360;2023-07-24T12:43:18;7.33;;;4.73;;
3755;SDS011;1893;52.526;13.360;2023-07-24T12:45:44;4.90;;;3.70;;
3755;SDS011;1893;52.526;13.360;2023-07-24T12:48:09;5.13;;;4.30;;
3755;SDS011;1893;52.526;13.360;2023-07-24T12:50:35;6.10;;;3.63;;
3755;SDS011;1893;52.526;13.360;2023-07-24T12:53:01;5.73;;;3.90;;
3755;SDS011;1893;52.526;13.360;2023-07-24T12:55:26;6.13;;;3.37;;
3755;SDS011;1893;52.526;13.360;2023-07-24T12:57:54;3.37;;;3.00;;
3755;SDS011;1893;52.526;13.360;2023-07-24T13:00:21;6.63;;;3.60;;
3755;SDS011;1893;52.526;13.360;2023-07-24T13:02:46;7.80;;;5.33;;
3755;SDS011;1893;52.526;13.360;2023-07-24T13:05:12;3.33;;;3.13;;
3755;SDS011;1893;52.526;13.360;2023-07-24T13:07:38;3.50;;;3.20;;
3755;SDS011;1893;52.526;13.360;2023-07-24T13:10:03;7.00;;;3.70;;
3755;SDS011;1893;52.526;13.360;2023-07-24T13:12:29;6.97;;;4.17;;
3755;SDS011;1893;52.526;13.360;2023-07-24T13:14:55;4.50;;;3.17;;
3755;SDS011;1893;52.526;13.360;2023-07-24T13:17:21;7.90;;;6.30;;
3755;SDS011;1893;52.526;13.360;2023-07-24T13:19:46;8.90;;;3.50;;
3755;SDS011;1893;52.526;13.360;2023-07-24T13:22:12;7.90;;;4.50;;
3755;SDS011;1893;52.526;13.360;2023-07-24T13:24:37;4.47;;;3.00;;
3755;SDS011;1893;52.526;13.360;2023-07-24T13:27:03;4.20;;;3.60;;
3755;SDS011;1893;52.526;13.360;2023-07-24T13:29:29;5.60;;;4.67;;
3755;SDS011;1893;52.526;13.360;2023-07-24T13:31:56;13.37;;;8.60;;
3755;SDS011;1893;52.526;13.360;2023-07-24T13:34:23;6.27;;;5.67;;
3755;SDS011;1893;52.526;13.360;2023-07-24T13:36:49;7.70;;;4.43;;
3755;SDS011;1893;52.526;13.360;2023-07-24T13:39:15;7.70;;;3.30;;
3755;SDS011;1893;52.526;13.360;2023-07-24T13:41:40;5.97;;;3.70;;
3755;SDS011;1893;52.526;13.360;2023-07-24T13:44:06;5.57;;;3.70;;
3755;SDS011;1893;52.526;13.360;2023-07-24T13:46:32;5.70;;;3.37;;
3755;SDS011;1893;52.526;13.360;2023-07-24T13:48:58;6.90;;;4.27;;
3755;SDS011;1893;52.526;13.360;2023-07-24T13:51:23;7.03;;;5.37;;
3755;SDS011;1893;52.526;13.360;2023-07-24T13:53:49;5.27;;;4.77;;
3755;SDS011;1893;52.526;13.360;2023-07-24T13:56:16;6.57;;;4.33;;
3755;SDS011;1893;52.526;13.360;2023-07-24T13:58:43;5.53;;;3.40;;
3755;SDS011;1893;52.526;13.360;2023-07-24T14:01:09;5.40;;;3.30;;
3755;SDS011;1893;52.526;13.360;2023-07-24T14:03:35;4.63;;;3.30;;
3755;SDS011;1893;52.526;13.360;2023-07-24T14:06:01;3.80;;;3.33;;
3755;SDS011;1893;52.526;13.360;2023-07-24T14:08:27;4.50;;;3.20;;
3755;SDS011;1893;52.526;13.360;2023-07-24T14:10:52;4.00;;;3.67;;
3755;SDS011;1893;52.526;13.360;2023-07-24T14:13:18;5.77;;;3.63;;
3755;SDS011;1893;52.526;13.360;2023-07-24T14:15:43;3.60;;;3.27;;
3755;SDS011;1893;52.526;13.360;2023-07-24T14:18:09;4.40;;;3.33;;
3755;SDS011;1893;52.526;13.360;2023-07-24T14:20:38;5.80;;;4.70;;
3755;SDS011;1893;52.526;13.360;2023-07-24T14:23:06;5.70;;;2.97;;
3755;SDS011;1893;52.526;13.360;2023-07-24T14:25:35;6.60;;;4.20;;
3755;SDS011;1893;52.526;13.360;2023-07-24T14:28:00;7.93;;;3.30;;
3755;SDS011;1893;52.526;13.360;2023-07-24T14:30:26;8.67;;;4.20;;
3755;SDS011;1893;52.526;13.360;2023-07-24T14:32:51;3.57;;;3.00;;
3755;SDS011;1893;52.526;13.360;2023-07-24T14:35:17;3.67;;;2.90;;
3755;SDS011;1893;52.526;13.360;2023-07-24T14:37:43;3.53;;;3.17;;
3755;SDS011;1893;52.526;13.360;2023-07-24T14:40:10;6.00;;;3.23;;
3755;SDS011;1893;52.526;13.360;2023-07-24T14:42:37;4.27;;;3.50;;
3755;SDS011;1893;52.526;13.360;2023-07-24T14:45:02;6.10;;;3.90;;
3755;SDS011;1893;52.526;13.360;2023-07-24T14:47:29;5.27;;;3.90;;
3755;SDS011;1893;52.526;13.360;2023-07-24T14:49:56;4.50;;;3.60;;
3755;SDS011;1893;52.526;13.360;2023-07-24T14:52:22;4.23;;;3.37;;
3755;SDS011;1893;52.526;13.360;2023-07-24T14:54:47;4.03;;;3.40;;
3755;SDS011;1893;52.526;13.360;2023-07-24T14:57:13;3.83;;;3.13;;
3755;SDS011;1893;52.526;13.360;2023-07-24T14:59:38;4.40;;;3.30;;
3755;SDS011;1893;52.526;13.360;2023-07-24T15:02:04;4.03;;;3.63;;
3755;SDS011;1893;52.526;13.360;2023-07-24T15:04:30;4.80;;;3.43;;
3755;SDS011;1893;52.526;13.360;2023-07-24T15:06:56;4.40;;;3.60;;
3755;SDS011;1893;52.526;13.360;2023-07-24T15:09:22;6.50;;;4.17;;
3755;SDS011;1893;52.526;13.360;2023-07-24T15:11:47;4.40;;;3.93;;